createdAt,value
2022-12-09T00:00:09.441Z,15.70
2022-12-09T00:02:11.912Z,16.20
2022-12-09T00:04:14.961Z,16.90
2022-12-09T00:06:19.374Z,16.60
2022-12-09T00:08:21.674Z,15.83
2022-12-09T00:10:23.777Z,16.20
2022-12-09T00:12:25.873Z,16.10
2022-12-09T00:14:29.054Z,14.43
2022-12-09T00:16:31.247Z,14.30
2022-12-09T00:18:34.330Z,15.83
2022-12-09T00:20:36.378Z,16.80
2022-12-09T00:22:38.429Z,15.53
2022-12-09T00:24:40.547Z,16.67
2022-12-09T00:26:42.563Z,15.77
2022-12-09T00:28:45.153Z,17.37
2022-12-09T00:30:47.425Z,17.43
2022-12-09T00:32:50.072Z,16.90
2022-12-09T00:34:52.227Z,16.87
2022-12-09T00:36:54.493Z,16.87
2022-12-09T00:38:58.063Z,14.80
2022-12-09T00:41:00.291Z,16.20
2022-12-09T00:43:02.392Z,15.53
2022-12-09T00:45:05.037Z,15.83
2022-12-09T00:47:07.322Z,16.33
2022-12-09T00:49:10.963Z,15.77
2022-12-09T00:51:15.785Z,16.07
2022-12-09T00:53:17.927Z,16.63
2022-12-09T00:55:20.060Z,15.50
2022-12-09T00:57:23.404Z,17.13
2022-12-09T00:59:26.022Z,15.57
2022-12-09T01:01:28.666Z,16.97
2022-12-09T01:03:31.205Z,15.47
2022-12-09T01:05:36.840Z,15.70
2022-12-09T01:07:39.057Z,13.80
2022-12-09T01:09:41.312Z,14.83
2022-12-09T01:11:43.397Z,15.90
2022-12-09T01:13:45.742Z,14.77
2022-12-09T01:15:47.872Z,16.70
2022-12-09T01:17:50.272Z,16.37
2022-12-09T01:19:52.817Z,16.03
2022-12-09T01:21:55.537Z,14.17
2022-12-09T01:23:58.108Z,15.80
2022-12-09T01:26:00.134Z,15.60
2022-12-09T01:28:02.562Z,16.20
2022-12-09T01:30:07.054Z,14.43
2022-12-09T01:32:09.573Z,14.47
2022-12-09T01:34:11.692Z,16.10
2022-12-09T01:36:16.989Z,15.10
2022-12-09T01:38:19.027Z,13.43
2022-12-09T01:40:21.049Z,15.83
2022-12-09T01:42:25.768Z,13.63
2022-12-09T01:44:28.511Z,14.37
2022-12-09T01:46:30.708Z,15.57
2022-12-09T01:48:35.657Z,14.30
2022-12-09T01:50:39.512Z,14.20
2022-12-09T01:52:41.535Z,14.50
2022-12-09T01:54:46.892Z,14.13
2022-12-09T01:56:49.543Z,13.07
2022-12-09T01:58:53.067Z,12.80
2022-12-09T02:00:56.010Z,14.40
2022-12-09T02:03:00.138Z,12.97
2022-12-09T02:05:04.170Z,14.13
2022-12-09T02:07:09.432Z,12.40
2022-12-09T02:09:11.861Z,13.07
2022-12-09T02:11:40.148Z,13.03
2022-12-09T02:14:05.416Z,13.33
2022-12-09T02:16:10.566Z,12.00
2022-12-09T02:18:26.356Z,13.00
2022-12-09T02:20:37.348Z,13.00
2022-12-09T02:22:44.191Z,13.17
2022-12-09T02:24:59.058Z,13.47
2022-12-09T02:27:11.199Z,13.80
2022-12-09T02:29:25.533Z,13.00
2022-12-09T02:32:06.804Z,13.87
2022-12-09T02:34:19.048Z,12.67
2022-12-09T02:36:31.536Z,14.00
2022-12-09T02:38:35.779Z,13.73
2022-12-09T02:40:49.057Z,14.07
2022-12-09T02:42:51.308Z,13.50
2022-12-09T02:44:53.477Z,13.80
2022-12-09T02:46:57.590Z,12.90
2022-12-09T02:49:00.337Z,15.57
2022-12-09T02:51:04.907Z,12.97
2022-12-09T02:53:11.053Z,13.17
2022-12-09T02:55:15.805Z,13.00
2022-12-09T02:57:20.528Z,15.00
2022-12-09T02:59:22.641Z,13.80
2022-12-09T03:01:51.177Z,13.67
2022-12-09T03:03:54.203Z,12.97
2022-12-09T03:06:05.415Z,13.27
2022-12-09T03:08:33.328Z,13.30
2022-12-09T03:11:07.571Z,13.23
2022-12-09T03:13:14.547Z,14.80
2022-12-09T03:15:18.265Z,13.00
2022-12-09T03:17:35.014Z,13.37
2022-12-09T03:20:08.400Z,13.27
2022-12-09T03:22:18.184Z,13.90
2022-12-09T03:24:26.204Z,14.43
2022-12-09T03:26:30.442Z,13.10
2022-12-09T03:28:38.453Z,13.60
2022-12-09T03:30:41.919Z,12.80
2022-12-09T03:32:46.049Z,13.80
2022-12-09T03:34:51.196Z,13.60
2022-12-09T03:36:54.027Z,12.80
2022-12-09T03:38:57.462Z,14.30
2022-12-09T03:41:28.023Z,13.30
2022-12-09T03:43:34.585Z,12.50
2022-12-09T03:45:37.120Z,14.37
2022-12-09T03:47:39.636Z,12.97
2022-12-09T03:49:42.469Z,13.20
2022-12-09T03:52:21.402Z,14.03
2022-12-09T03:54:36.317Z,14.63
2022-12-09T03:56:41.743Z,13.27
2022-12-09T03:58:45.237Z,13.00
2022-12-09T04:00:47.553Z,13.97
2022-12-09T04:02:50.787Z,14.10
2022-12-09T04:04:53.287Z,13.93
2022-12-09T04:06:57.740Z,14.47
2022-12-09T04:09:02.604Z,15.50
2022-12-09T04:11:05.556Z,15.53
2022-12-09T04:13:07.984Z,14.83
2022-12-09T04:15:10.537Z,14.90
2022-12-09T04:17:12.815Z,14.77
2022-12-09T04:19:14.969Z,16.27
2022-12-09T04:21:17.228Z,16.30
2022-12-09T04:23:19.524Z,17.93
2022-12-09T04:25:21.741Z,15.90
2022-12-09T04:27:25.252Z,17.47
2022-12-09T04:29:27.540Z,16.90
2022-12-09T04:31:29.957Z,17.50
2022-12-09T04:33:33.204Z,17.40
2022-12-09T04:35:35.477Z,17.80
2022-12-09T04:37:37.549Z,19.63
2022-12-09T04:39:41.782Z,19.80
2022-12-09T04:41:43.980Z,17.07
2022-12-09T04:43:45.985Z,18.73
2022-12-09T04:45:48.053Z,23.20
2022-12-09T04:47:51.265Z,20.53
2022-12-09T04:49:53.341Z,19.13
2022-12-09T04:51:55.629Z,17.27
2022-12-09T04:53:57.945Z,20.37
2022-12-09T04:56:04.988Z,17.87
2022-12-09T04:58:09.009Z,21.97
2022-12-09T05:00:13.278Z,22.97
2022-12-09T05:02:16.353Z,23.70
2022-12-09T05:04:18.864Z,20.33
2022-12-09T05:06:22.078Z,20.17
2022-12-09T05:08:31.019Z,21.60
2022-12-09T05:10:33.936Z,18.20
2022-12-09T05:12:36.618Z,17.30
2022-12-09T05:14:38.972Z,16.87
2022-12-09T05:16:41.342Z,17.43
2022-12-09T05:18:44.758Z,16.80
2022-12-09T05:20:47.115Z,18.03
2022-12-09T05:22:51.966Z,17.90
2022-12-09T05:24:54.201Z,18.73
2022-12-09T05:26:56.494Z,18.53
2022-12-09T05:28:58.979Z,20.50
2022-12-09T05:31:02.292Z,17.40
2022-12-09T05:33:05.126Z,19.30
2022-12-09T05:35:08.035Z,22.40
2022-12-09T05:37:15.334Z,19.00
2022-12-09T05:39:17.813Z,17.37
2022-12-09T05:41:21.035Z,16.17
2022-12-09T05:43:23.297Z,16.20
2022-12-09T05:45:25.692Z,18.23
2022-12-09T05:47:29.831Z,20.37
2022-12-09T05:49:32.247Z,16.80
2022-12-09T05:51:34.585Z,15.40
2022-12-09T05:53:36.864Z,15.77
2022-12-09T05:55:42.073Z,13.93
2022-12-09T05:57:44.283Z,15.03
2022-12-09T05:59:46.455Z,17.73
2022-12-09T06:01:53.890Z,14.67
2022-12-09T06:03:56.689Z,16.00
2022-12-09T06:05:59.160Z,15.43
2022-12-09T06:08:06.543Z,15.67
2022-12-09T06:10:10.373Z,15.90
2022-12-09T06:12:13.031Z,15.93
2022-12-09T06:14:15.156Z,16.20
2022-12-09T06:16:20.660Z,14.80
2022-12-09T06:18:23.020Z,14.20
2022-12-09T06:20:25.162Z,14.73
2022-12-09T06:22:27.527Z,15.20
2022-12-09T06:24:29.737Z,13.67
2022-12-09T06:26:31.971Z,13.63
2022-12-09T06:28:34.700Z,16.93
2022-12-09T06:30:37.202Z,17.03
2022-12-09T06:32:39.522Z,16.97
2022-12-09T06:34:42.308Z,16.20
2022-12-09T06:36:44.661Z,17.57
2022-12-09T06:38:47.260Z,19.50
2022-12-09T06:40:49.242Z,15.33
2022-12-09T06:42:51.946Z,17.33
2022-12-09T06:44:54.551Z,15.73
2022-12-09T06:46:56.991Z,16.03
2022-12-09T06:48:59.468Z,14.67
2022-12-09T06:51:01.949Z,14.70
2022-12-09T06:53:04.374Z,14.03
2022-12-09T06:55:08.340Z,13.37
2022-12-09T06:57:10.906Z,12.60
2022-12-09T06:59:13.153Z,14.63
2022-12-09T07:01:21.165Z,13.87
2022-12-09T07:03:23.948Z,13.57
2022-12-09T07:05:26.863Z,11.67
2022-12-09T07:07:29.308Z,12.80
2022-12-09T07:09:31.717Z,16.27
2022-12-09T07:11:34.391Z,14.00
2022-12-09T07:13:36.852Z,13.10
2022-12-09T07:15:39.241Z,13.93
2022-12-09T07:17:41.475Z,14.50
2022-12-09T07:19:44.078Z,13.77
2022-12-09T07:21:47.061Z,14.30
2022-12-09T07:23:49.866Z,13.03
2022-12-09T07:25:57.848Z,15.20
2022-12-09T07:28:00.136Z,14.27
2022-12-09T07:30:02.734Z,14.73
2022-12-09T07:32:05.548Z,14.33
2022-12-09T07:34:08.378Z,15.40
2022-12-09T07:36:12.610Z,14.80
2022-12-09T07:38:17.032Z,15.10
2022-12-09T07:40:19.117Z,15.87
2022-12-09T07:42:21.624Z,16.53
2022-12-09T07:44:29.631Z,16.13
2022-12-09T07:46:32.342Z,12.73
2022-12-09T07:48:35.199Z,14.37
2022-12-09T07:50:38.374Z,14.93
2022-12-09T07:52:40.921Z,15.97
2022-12-09T07:54:42.993Z,14.80
2022-12-09T07:56:45.573Z,14.17
2022-12-09T07:58:48.751Z,15.50
2022-12-09T08:00:50.921Z,14.70
2022-12-09T08:02:53.828Z,15.53
2022-12-09T08:04:56.142Z,14.90
2022-12-09T08:06:59.602Z,15.20
2022-12-09T08:09:05.016Z,14.53
2022-12-09T08:11:08.787Z,20.47
2022-12-09T08:13:11.631Z,17.20
2022-12-09T08:15:14.736Z,17.10
2022-12-09T08:17:17.734Z,17.00
2022-12-09T08:19:20.235Z,16.07
2022-12-09T08:21:27.801Z,17.00
2022-12-09T08:23:30.296Z,14.93
2022-12-09T08:25:32.479Z,17.03
2022-12-09T08:27:35.342Z,15.03
2022-12-09T08:29:38.049Z,15.20
2022-12-09T08:31:42.259Z,15.20
2022-12-09T08:33:45.867Z,15.73
2022-12-09T08:35:48.241Z,15.07
2022-12-09T08:37:50.854Z,16.67
2022-12-09T08:39:53.261Z,15.60
2022-12-09T08:41:55.720Z,13.67
2022-12-09T08:43:57.901Z,13.57
2022-12-09T08:46:00.481Z,15.90
2022-12-09T08:48:03.156Z,14.27
2022-12-09T08:50:07.039Z,13.20
2022-12-09T08:52:09.552Z,13.30
2022-12-09T08:54:12.066Z,13.90
2022-12-09T08:56:15.576Z,14.70
2022-12-09T08:58:17.657Z,15.10
2022-12-09T09:00:20.406Z,14.37
2022-12-09T09:02:22.847Z,15.43
2022-12-09T09:04:25.415Z,13.33
2022-12-09T09:06:28.312Z,14.30
2022-12-09T09:08:31.506Z,14.50
2022-12-09T09:10:34.147Z,14.67
2022-12-09T09:12:42.160Z,16.80
2022-12-09T09:14:45.797Z,17.23
2022-12-09T09:16:48.208Z,15.93
2022-12-09T09:18:51.135Z,19.50
2022-12-09T09:20:57.686Z,16.23
2022-12-09T09:23:03.308Z,16.93
2022-12-09T09:25:07.093Z,14.33
2022-12-09T09:27:09.663Z,14.80
2022-12-09T09:29:13.696Z,16.50
2022-12-09T09:31:18.433Z,14.60
2022-12-09T09:33:21.068Z,15.10
2022-12-09T09:35:23.429Z,16.80
2022-12-09T09:37:26.523Z,14.50
2022-12-09T09:39:28.765Z,15.53
2022-12-09T09:41:40.249Z,14.10
2022-12-09T09:43:43.001Z,14.97
2022-12-09T09:45:46.475Z,14.43
2022-12-09T09:47:53.611Z,14.67
2022-12-09T09:50:38.910Z,15.20
2022-12-09T09:52:42.194Z,15.67
2022-12-09T09:54:44.413Z,13.67
2022-12-09T09:57:13.473Z,14.77
2022-12-09T09:59:39.528Z,15.20
2022-12-09T10:01:46.788Z,14.73
2022-12-09T10:04:15.227Z,13.10
2022-12-09T10:06:40.265Z,15.73
2022-12-09T10:08:57.217Z,13.63
2022-12-09T10:11:02.700Z,14.00
2022-12-09T10:13:25.823Z,14.80
2022-12-09T10:15:41.094Z,16.20
2022-12-09T10:17:55.286Z,15.57
2022-12-09T10:20:21.392Z,15.30
2022-12-09T10:22:27.957Z,16.30
2022-12-09T10:24:39.987Z,14.77
2022-12-09T10:26:43.094Z,13.40
2022-12-09T10:28:47.982Z,16.90
2022-12-09T10:30:51.787Z,17.40
2022-12-09T10:32:54.515Z,13.77
2022-12-09T10:34:57.421Z,15.80
2022-12-09T10:37:00.504Z,17.83
2022-12-09T10:39:03.232Z,16.07
2022-12-09T10:41:39.057Z,15.10
2022-12-09T10:43:42.448Z,16.77
2022-12-09T10:46:17.394Z,16.57
2022-12-09T10:48:34.240Z,18.10
2022-12-09T10:50:37.279Z,15.00
2022-12-09T10:52:46.114Z,16.10
2022-12-09T10:54:48.346Z,18.07
2022-12-09T10:57:13.848Z,15.40
2022-12-09T10:59:25.067Z,14.43
2022-12-09T11:01:27.210Z,17.67
2022-12-09T11:03:33.468Z,13.43
2022-12-09T11:05:36.160Z,14.93
2022-12-09T11:07:38.806Z,15.17
2022-12-09T11:09:44.807Z,14.33
2022-12-09T11:11:49.002Z,14.97
2022-12-09T11:13:51.856Z,14.53
2022-12-09T11:15:59.514Z,14.40
2022-12-09T11:18:25.664Z,13.90
2022-12-09T11:20:29.703Z,13.43
2022-12-09T11:22:40.259Z,14.33
2022-12-09T11:24:43.370Z,14.07
2022-12-09T11:26:45.839Z,14.23
2022-12-09T11:29:00.257Z,12.80
2022-12-09T11:33:34.928Z,12.77
2022-12-09T11:35:39.134Z,13.67
2022-12-09T11:37:41.263Z,13.17
2022-12-09T11:39:49.021Z,13.07
2022-12-09T11:42:18.577Z,14.53
2022-12-09T11:44:27.883Z,14.00
2022-12-09T11:46:31.554Z,13.90
2022-12-09T11:48:40.082Z,13.13
2022-12-09T11:50:49.694Z,13.10
2022-12-09T11:53:11.549Z,13.90
2022-12-09T11:55:22.791Z,15.47
2022-12-09T11:57:47.918Z,13.00
2022-12-09T11:59:54.886Z,13.43
2022-12-09T12:02:25.364Z,13.20
2022-12-09T12:04:59.029Z,13.70
2022-12-09T12:07:30.703Z,12.60
2022-12-09T12:09:52.237Z,13.23
2022-12-09T12:12:05.276Z,13.47
2022-12-09T12:14:19.321Z,11.10
2022-12-09T12:16:39.067Z,11.47
2022-12-09T12:18:49.137Z,10.27
2022-12-09T12:21:01.492Z,12.90
2022-12-09T12:23:11.851Z,11.40
2022-12-09T12:25:35.527Z,11.67
2022-12-09T12:28:09.897Z,12.50
2022-12-09T12:30:18.934Z,11.17
2022-12-09T12:32:52.259Z,9.87
2022-12-09T12:35:38.820Z,11.47
2022-12-09T12:37:49.740Z,10.07
2022-12-09T12:40:03.634Z,10.33
2022-12-09T12:42:20.059Z,10.43
2022-12-09T12:44:47.439Z,11.50
2022-12-09T12:47:14.068Z,12.20
2022-12-09T12:49:37.193Z,10.97
2022-12-09T12:51:54.724Z,9.60
2022-12-09T12:54:00.197Z,10.30
2022-12-09T12:56:09.011Z,10.13
2022-12-09T12:58:32.874Z,11.43
2022-12-09T13:00:56.569Z,9.80
2022-12-09T13:03:10.521Z,11.27
2022-12-09T13:05:19.438Z,9.90
2022-12-09T13:07:35.855Z,10.53
2022-12-09T13:09:55.596Z,11.70
2022-12-09T13:12:06.709Z,11.13
2022-12-09T13:14:14.547Z,12.17
2022-12-09T13:16:21.319Z,11.73
2022-12-09T13:18:31.577Z,11.03
2022-12-09T13:20:43.271Z,11.83
2022-12-09T13:22:56.305Z,11.13
2022-12-09T13:25:03.732Z,11.47
2022-12-09T13:27:12.833Z,11.50
2022-12-09T13:29:58.370Z,12.03
2022-12-09T13:32:18.653Z,11.47
2022-12-09T13:34:29.532Z,11.80
2022-12-09T13:36:41.430Z,10.93
2022-12-09T13:38:44.085Z,10.57
2022-12-09T13:40:46.105Z,11.17
2022-12-09T13:42:56.629Z,11.13
2022-12-09T13:45:05.479Z,10.53
2022-12-09T13:47:36.516Z,11.80
2022-12-09T13:49:39.170Z,12.67
2022-12-09T13:51:48.143Z,11.13
2022-12-09T13:53:59.913Z,10.47
2022-12-09T13:56:04.535Z,12.20
2022-12-09T13:58:18.684Z,12.97
2022-12-09T14:00:20.800Z,11.40
2022-12-09T14:02:36.372Z,12.77
2022-12-09T14:05:03.692Z,10.33
2022-12-09T14:07:26.106Z,12.73
2022-12-09T14:09:56.563Z,12.10
2022-12-09T14:12:00.760Z,12.30
2022-12-09T14:14:27.766Z,11.87
2022-12-09T14:16:30.039Z,12.60
2022-12-09T14:18:33.249Z,12.37
2022-12-09T14:20:38.612Z,11.80
2022-12-09T14:22:40.860Z,12.67
2022-12-09T14:24:52.730Z,11.70
2022-12-09T14:27:00.882Z,12.47
2022-12-09T14:29:03.497Z,11.73
2022-12-09T14:31:09.052Z,12.00
2022-12-09T14:33:33.419Z,11.70
2022-12-09T14:36:06.468Z,11.20
2022-12-09T14:38:24.988Z,11.30
2022-12-09T14:40:47.213Z,12.17
2022-12-09T14:42:53.397Z,11.97
2022-12-09T14:45:03.888Z,12.63
2022-12-09T14:47:28.252Z,12.93
2022-12-09T14:49:30.351Z,12.27
2022-12-09T14:51:38.999Z,12.87
2022-12-09T14:53:41.089Z,13.17
2022-12-09T14:55:43.085Z,13.13
2022-12-09T14:57:46.957Z,13.40
2022-12-09T14:59:51.881Z,13.07
2022-12-09T15:01:58.172Z,14.00
2022-12-09T15:04:00.404Z,11.20
2022-12-09T15:06:12.050Z,13.20
2022-12-09T15:08:34.209Z,12.60
2022-12-09T15:10:38.120Z,12.37
2022-12-09T15:12:45.948Z,15.27
2022-12-09T15:14:51.094Z,13.30
2022-12-09T15:16:54.586Z,12.87
2022-12-09T15:18:56.556Z,13.70
2022-12-09T15:21:00.086Z,14.10
2022-12-09T15:23:17.232Z,13.67
2022-12-09T15:25:20.364Z,14.50
2022-12-09T15:27:24.307Z,15.30
2022-12-09T15:29:31.185Z,17.10
2022-12-09T15:31:34.293Z,20.53
2022-12-09T15:33:45.336Z,22.33
2022-12-09T15:35:53.622Z,16.93
2022-12-09T15:37:58.729Z,21.10
2022-12-09T15:40:08.890Z,17.67
2022-12-09T15:42:14.603Z,15.07
2022-12-09T15:44:18.832Z,15.10
2022-12-09T15:46:21.468Z,13.30
2022-12-09T15:48:27.375Z,14.80
2022-12-09T15:50:49.928Z,13.43
2022-12-09T15:52:59.854Z,12.50
2022-12-09T15:55:06.918Z,13.50
2022-12-09T15:57:11.895Z,14.97
2022-12-09T15:59:23.728Z,13.53
2022-12-09T16:01:31.515Z,12.67
2022-12-09T16:03:34.910Z,14.23
2022-12-09T16:05:41.775Z,13.93
2022-12-09T16:07:56.319Z,13.23
2022-12-09T16:10:15.037Z,13.87
2022-12-09T16:12:28.542Z,13.70
2022-12-09T16:14:50.866Z,14.93
2022-12-09T16:17:03.738Z,14.93
2022-12-09T16:19:05.898Z,14.77
2022-12-09T16:21:27.157Z,15.90
2022-12-09T16:23:29.545Z,13.83
2022-12-09T16:25:42.779Z,15.50
2022-12-09T16:27:48.692Z,19.00
2022-12-09T16:29:53.097Z,15.43
2022-12-09T16:32:19.077Z,15.27
2022-12-09T16:34:22.295Z,16.40
2022-12-09T16:36:31.415Z,17.50
2022-12-09T16:38:38.358Z,16.00
2022-12-09T16:40:46.406Z,16.00
2022-12-09T16:42:52.216Z,18.00
2022-12-09T16:45:21.666Z,15.77
2022-12-09T16:47:26.771Z,15.17
2022-12-09T16:49:28.867Z,16.10
2022-12-09T16:51:31.018Z,17.33
2022-12-09T16:53:36.386Z,16.43
2022-12-09T16:55:38.522Z,18.87
2022-12-09T16:57:40.491Z,18.87
2022-12-09T16:59:43.283Z,15.83
2022-12-09T17:01:45.587Z,16.80
2022-12-09T17:03:52.458Z,18.10
2022-12-09T17:05:54.483Z,19.10
2022-12-09T17:07:56.597Z,17.10
2022-12-09T17:09:58.724Z,16.40
2022-12-09T17:12:00.790Z,18.53
2022-12-09T17:14:02.801Z,19.10
2022-12-09T17:16:06.186Z,19.80
2022-12-09T17:18:09.618Z,17.87
2022-12-09T17:20:12.006Z,18.30
2022-12-09T17:22:14.093Z,18.17
2022-12-09T17:24:16.098Z,17.50
2022-12-09T17:26:20.073Z,18.53
2022-12-09T17:28:24.831Z,18.90
2022-12-09T17:30:30.685Z,18.43
2022-12-09T17:32:32.751Z,19.23
2022-12-09T17:34:34.843Z,17.97
2022-12-09T17:36:36.868Z,16.77
2022-12-09T17:38:38.981Z,18.03
2022-12-09T17:40:41.010Z,17.40
2022-12-09T17:42:43.068Z,18.70
2022-12-09T17:44:44.998Z,17.60
2022-12-09T17:46:48.264Z,19.07
2022-12-09T17:48:50.269Z,19.90
2022-12-09T17:50:52.285Z,18.90
2022-12-09T17:52:54.602Z,20.70
2022-12-09T17:54:56.733Z,21.20
2022-12-09T17:56:58.848Z,21.03
2022-12-09T17:59:04.122Z,22.53
2022-12-09T18:01:13.251Z,24.40
2022-12-09T18:03:27.468Z,19.00
2022-12-09T18:05:38.822Z,21.70
2022-12-09T18:07:40.958Z,23.80
2022-12-09T18:09:43.014Z,21.07
2022-12-09T18:11:45.575Z,18.40
2022-12-09T18:13:47.704Z,21.73
2022-12-09T18:15:54.068Z,21.87
2022-12-09T18:17:57.042Z,21.00
2022-12-09T18:19:59.094Z,21.07
2022-12-09T18:22:02.228Z,20.93
2022-12-09T18:24:04.841Z,22.57
2022-12-09T18:26:08.623Z,17.77
2022-12-09T18:28:10.872Z,18.40
2022-12-09T18:30:13.293Z,20.27
2022-12-09T18:32:15.592Z,20.60
2022-12-09T18:34:17.617Z,20.67
2022-12-09T18:36:22.652Z,17.53
2022-12-09T18:38:24.665Z,18.23
2022-12-09T18:40:26.632Z,17.83
2022-12-09T18:42:28.742Z,17.60
2022-12-09T18:44:30.846Z,19.70
2022-12-09T18:46:36.377Z,19.20
2022-12-09T18:48:39.019Z,19.17
2022-12-09T18:50:41.045Z,18.33
2022-12-09T18:52:43.912Z,18.90
2022-12-09T18:54:47.728Z,16.30
2022-12-09T18:56:51.010Z,17.87
2022-12-09T18:59:09.432Z,18.93
2022-12-09T19:01:21.028Z,17.70
2022-12-09T19:03:23.243Z,17.20
2022-12-09T19:05:26.364Z,17.10
2022-12-09T19:07:32.303Z,18.37
2022-12-09T19:09:36.276Z,17.10
2022-12-09T19:11:40.094Z,16.13
2022-12-09T19:13:42.162Z,17.17
2022-12-09T19:15:44.488Z,17.37
2022-12-09T19:17:47.195Z,20.50
2022-12-09T19:19:49.369Z,19.37
2022-12-09T19:21:52.916Z,18.03
2022-12-09T19:23:55.421Z,17.93
2022-12-09T19:25:57.469Z,18.67
2022-12-09T19:27:59.488Z,18.60
2022-12-09T19:30:01.565Z,20.50
2022-12-09T19:32:04.340Z,16.33
2022-12-09T19:34:29.025Z,15.87
2022-12-09T19:36:33.818Z,18.40
2022-12-09T19:38:35.806Z,18.40
2022-12-09T19:40:37.997Z,17.93
2022-12-09T19:42:40.248Z,20.30
2022-12-09T19:47:05.361Z,17.50
2022-12-09T19:49:12.895Z,18.30
2022-12-09T19:51:16.907Z,19.37
2022-12-09T19:53:18.895Z,19.57
2022-12-09T19:55:20.896Z,20.33
2022-12-09T19:57:22.914Z,19.10
2022-12-09T19:59:26.855Z,18.33
2022-12-09T20:01:31.397Z,22.90
2022-12-09T20:03:33.393Z,21.30
2022-12-09T20:05:35.401Z,22.10
2022-12-09T20:07:37.477Z,18.97
2022-12-09T20:09:39.845Z,24.33
2022-12-09T20:11:42.192Z,22.00
2022-12-09T20:13:44.561Z,19.90
2022-12-09T20:15:46.678Z,19.60
2022-12-09T20:17:48.763Z,21.00
2022-12-09T20:19:50.770Z,18.60
2022-12-09T20:21:52.825Z,19.13
2022-12-09T20:23:54.847Z,19.70
2022-12-09T20:26:17.835Z,21.37
2022-12-09T20:28:19.809Z,17.53
2022-12-09T20:30:21.795Z,21.20
2022-12-09T20:32:23.803Z,19.60
2022-12-09T20:34:26.661Z,18.83
2022-12-09T20:36:31.313Z,18.87
2022-12-09T20:38:35.676Z,17.10
2022-12-09T20:40:40.796Z,18.70
2022-12-09T20:42:43.276Z,16.30
2022-12-09T20:44:45.880Z,18.33
2022-12-09T20:46:49.927Z,16.70
2022-12-09T20:48:52.330Z,15.67
2022-12-09T20:50:54.255Z,16.60
2022-12-09T20:52:56.266Z,15.53
2022-12-09T20:54:58.304Z,16.50
2022-12-09T20:57:00.410Z,17.40
2022-12-09T20:59:04.115Z,18.97
2022-12-09T21:01:10.119Z,17.37
2022-12-09T21:03:12.139Z,16.10
2022-12-09T21:05:14.166Z,16.67
2022-12-09T21:07:16.834Z,18.07
2022-12-09T21:09:22.156Z,14.47
2022-12-09T21:11:25.713Z,23.10
2022-12-09T21:13:27.786Z,20.40
2022-12-09T21:15:29.915Z,20.33
2022-12-09T21:17:31.950Z,18.27
2022-12-09T21:19:34.286Z,15.63
2022-12-09T21:21:37.951Z,18.97
2022-12-09T21:23:40.093Z,19.30
2022-12-09T21:25:42.021Z,21.47
2022-12-09T21:27:44.019Z,22.17
2022-12-09T21:29:46.062Z,21.40
2022-12-09T21:31:48.770Z,20.50
2022-12-09T21:33:52.681Z,16.40
2022-12-09T21:35:54.631Z,19.10
2022-12-09T21:37:56.644Z,19.23
2022-12-09T21:39:58.616Z,19.23
2022-12-09T21:42:00.648Z,18.87
2022-12-09T21:44:04.367Z,17.90
2022-12-09T21:46:08.774Z,21.57
2022-12-09T21:48:12.007Z,21.63
2022-12-09T21:50:14.517Z,18.10
2022-12-09T21:52:16.520Z,18.90
2022-12-09T21:54:18.523Z,16.47
2022-12-09T21:56:22.706Z,19.20
2022-12-09T21:58:24.691Z,16.50
2022-12-09T22:00:26.676Z,16.30
2022-12-09T22:02:28.692Z,16.10
2022-12-09T22:04:30.745Z,18.83
2022-12-09T22:06:33.322Z,17.20
2022-12-09T22:08:36.411Z,17.03
2022-12-09T22:10:38.581Z,15.90
2022-12-09T22:12:40.608Z,16.17
2022-12-09T22:14:42.781Z,19.50
2022-12-09T22:16:46.226Z,18.63
2022-12-09T22:18:49.376Z,20.27
2022-12-09T22:23:13.516Z,21.07
2022-12-09T22:25:15.636Z,20.47
2022-12-09T22:27:17.678Z,18.57
2022-12-09T22:29:19.695Z,20.53
2022-12-09T22:31:27.465Z,20.53
2022-12-09T22:33:29.543Z,21.90
2022-12-09T22:35:33.045Z,20.97
2022-12-09T22:37:43.542Z,21.80
2022-12-09T22:39:46.435Z,21.10
2022-12-09T22:41:48.452Z,21.93
2022-12-09T22:43:50.941Z,21.63
2022-12-09T22:45:52.950Z,19.60
2022-12-09T22:47:55.360Z,20.20
2022-12-09T22:49:57.339Z,22.50
2022-12-09T22:52:00.741Z,21.97
2022-12-09T22:54:05.810Z,24.70
2022-12-09T22:56:09.343Z,21.87
2022-12-09T22:58:11.416Z,22.93
2022-12-09T23:00:13.711Z,24.43
2022-12-09T23:02:15.716Z,21.60
2022-12-09T23:04:21.748Z,21.00
2022-12-09T23:06:25.512Z,20.50
2022-12-09T23:08:27.498Z,22.50
2022-12-09T23:10:29.889Z,22.83
2022-12-09T23:12:31.799Z,19.03
2022-12-09T23:14:33.864Z,20.83
2022-12-09T23:16:36.035Z,23.90
2022-12-09T23:18:38.381Z,23.40
2022-12-09T23:20:40.459Z,20.70
2022-12-09T23:22:42.824Z,21.60
2022-12-09T23:24:44.858Z,22.40
2022-12-09T23:26:46.892Z,19.80
2022-12-09T23:28:50.814Z,21.23
2022-12-09T23:30:53.000Z,18.77
2022-12-09T23:32:55.102Z,20.50
2022-12-09T23:34:57.107Z,17.90
2022-12-09T23:36:59.112Z,21.90
2022-12-09T23:39:03.070Z,19.00
2022-12-09T23:41:05.810Z,22.50
2022-12-09T23:43:07.847Z,21.93
2022-12-09T23:45:10.240Z,20.90
2022-12-09T23:47:12.284Z,22.20
2022-12-09T23:49:14.669Z,19.77
2022-12-09T23:51:23.213Z,21.13
2022-12-09T23:53:25.256Z,23.67
2022-12-09T23:55:27.264Z,19.00
2022-12-09T23:57:29.926Z,25.43
2022-12-09T23:59:32.004Z,21.10
